createdAt,value
2018-07-20T00:01:44.445Z,4.60
2018-07-20T00:04:15.024Z,4.23
2018-07-20T00:06:45.659Z,5.13
2018-07-20T00:09:16.386Z,4.80
2018-07-20T00:11:47.184Z,4.33
2018-07-20T00:14:17.831Z,5.10
2018-07-20T00:16:49.352Z,5.10
2018-07-20T00:19:20.255Z,4.83
2018-07-20T00:21:56.115Z,4.93
2018-07-20T00:24:26.879Z,4.73
2018-07-20T00:26:57.037Z,4.63
2018-07-20T00:29:27.141Z,5.40
2018-07-20T00:31:58.264Z,5.17
2018-07-20T00:34:29.632Z,5.10
2018-07-20T00:37:00.324Z,5.40
2018-07-20T00:39:30.864Z,5.37
2018-07-20T00:42:01.357Z,5.17
2018-07-20T00:44:32.095Z,5.40
2018-07-20T00:47:02.118Z,5.80
2018-07-20T00:49:32.664Z,5.20
2018-07-20T00:52:03.615Z,5.07
2018-07-20T00:54:35.179Z,5.30
2018-07-20T00:57:05.917Z,5.60
2018-07-20T00:59:36.446Z,4.70
2018-07-20T01:02:06.974Z,5.17
2018-07-20T01:04:37.015Z,5.63
2018-07-20T01:07:07.718Z,5.47
2018-07-20T01:09:38.316Z,5.40
2018-07-20T01:12:10.117Z,5.60
2018-07-20T01:14:41.036Z,5.33
2018-07-20T01:17:11.632Z,5.30
2018-07-20T01:19:42.212Z,5.13
2018-07-20T01:22:12.926Z,4.93
2018-07-20T01:24:43.790Z,4.80
2018-07-20T01:27:14.375Z,5.30
2018-07-20T01:29:45.254Z,5.57
2018-07-20T01:32:16.178Z,5.63
2018-07-20T01:34:46.747Z,5.37
2018-07-20T01:37:18.134Z,5.97
2018-07-20T01:39:48.760Z,5.20
2018-07-20T01:42:19.387Z,6.20
2018-07-20T01:44:50.022Z,5.97
2018-07-20T01:47:20.665Z,5.53
2018-07-20T01:49:53.208Z,6.60
2018-07-20T01:52:24.260Z,6.10
2018-07-20T01:54:54.842Z,6.47
2018-07-20T01:57:25.323Z,6.13
2018-07-20T01:59:55.863Z,6.27
2018-07-20T02:02:26.729Z,5.93
2018-07-20T02:04:57.358Z,6.07
2018-07-20T02:07:27.957Z,6.23
2018-07-20T02:09:59.784Z,6.60
2018-07-20T02:12:30.549Z,5.90
2018-07-20T02:15:01.164Z,5.80
2018-07-20T02:17:31.662Z,6.20
2018-07-20T02:20:02.110Z,6.13
2018-07-20T02:22:32.664Z,6.43
2018-07-20T02:25:03.238Z,4.87
2018-07-20T02:27:34.691Z,5.70
2018-07-20T02:30:06.875Z,5.90
2018-07-20T02:32:37.461Z,5.93
2018-07-20T02:35:08.691Z,6.57
2018-07-20T02:37:39.189Z,5.70
2018-07-20T02:40:09.345Z,6.70
2018-07-20T02:42:40.512Z,6.60
2018-07-20T02:45:11.245Z,6.07
2018-07-20T02:47:42.237Z,5.83
2018-07-20T02:50:12.945Z,5.90
2018-07-20T02:52:43.581Z,6.23
2018-07-20T02:55:14.131Z,5.77
2018-07-20T02:57:44.741Z,5.80
2018-07-20T03:00:15.438Z,6.07
2018-07-20T03:02:46.001Z,6.10
2018-07-20T03:05:17.268Z,6.03
2018-07-20T03:07:48.984Z,7.10
2018-07-20T03:10:19.861Z,6.33
2018-07-20T03:12:50.534Z,6.10
2018-07-20T03:15:21.078Z,6.07
2018-07-20T03:17:51.760Z,6.20
2018-07-20T03:20:21.958Z,6.70
2018-07-20T03:22:52.591Z,6.00
2018-07-20T03:25:23.204Z,5.87
2018-07-20T03:27:54.772Z,6.03
2018-07-20T03:30:25.516Z,5.93
2018-07-20T03:32:55.659Z,6.17
2018-07-20T03:35:26.312Z,6.67
2018-07-20T03:37:56.996Z,6.53
2018-07-20T03:40:27.740Z,6.63
2018-07-20T03:42:58.483Z,6.90
2018-07-20T03:45:29.528Z,7.20
2018-07-20T03:48:01.138Z,6.80
2018-07-20T03:50:31.859Z,6.73
2018-07-20T03:53:02.610Z,6.63
2018-07-20T03:55:32.639Z,6.90
2018-07-20T03:58:03.450Z,6.33
2018-07-20T04:00:34.002Z,6.70
2018-07-20T04:03:04.662Z,6.53
2018-07-20T04:05:35.542Z,6.17
2018-07-20T04:08:06.863Z,6.20
2018-07-20T04:10:37.632Z,6.63
2018-07-20T04:13:08.318Z,7.10
2018-07-20T04:15:38.854Z,6.63
2018-07-20T04:18:09.492Z,6.53
2018-07-20T04:20:40.130Z,6.83
2018-07-20T04:23:10.910Z,6.13
2018-07-20T04:25:42.057Z,7.37
2018-07-20T04:28:13.001Z,6.07
2018-07-20T04:30:43.673Z,7.30
2018-07-20T04:33:14.627Z,7.17
2018-07-20T04:35:45.134Z,6.40
2018-07-20T04:38:15.827Z,6.07
2018-07-20T04:40:46.518Z,5.83
2018-07-20T04:43:17.609Z,6.00
2018-07-20T04:45:49.120Z,5.80
2018-07-20T04:48:19.651Z,5.90
2018-07-20T04:50:50.322Z,6.50
2018-07-20T04:53:20.859Z,6.47
2018-07-20T04:55:51.570Z,6.27
2018-07-20T04:58:22.035Z,6.10
2018-07-20T05:00:52.643Z,7.20
2018-07-20T05:03:23.915Z,6.40
2018-07-20T05:05:55.244Z,6.83
2018-07-20T05:08:25.718Z,7.30
2018-07-20T05:10:56.390Z,7.80
2018-07-20T05:13:26.498Z,6.40
2018-07-20T05:15:57.166Z,6.87
2018-07-20T05:18:27.817Z,6.43
2018-07-20T05:20:58.553Z,6.97
2018-07-20T05:23:30.504Z,6.33
2018-07-20T05:26:01.388Z,6.50
2018-07-20T05:28:32.608Z,6.73
2018-07-20T05:31:03.387Z,7.93
2018-07-20T05:33:34.062Z,8.07
2018-07-20T05:36:04.875Z,7.60
2018-07-20T05:38:35.897Z,6.90
2018-07-20T05:41:06.527Z,6.47
2018-07-20T05:43:37.470Z,6.37
2018-07-20T05:46:08.319Z,6.90
2018-07-20T05:48:39.064Z,6.47
2018-07-20T05:51:10.373Z,6.93
2018-07-20T05:53:41.869Z,6.67
2018-07-20T05:56:12.669Z,6.80
2018-07-20T05:58:44.160Z,6.87
2018-07-20T06:01:15.141Z,7.43
2018-07-20T06:03:45.611Z,7.40
2018-07-20T06:06:16.542Z,7.00
2018-07-20T06:08:47.951Z,7.27
2018-07-20T06:11:18.938Z,6.73
2018-07-20T06:13:51.536Z,6.50
2018-07-20T06:16:22.305Z,6.10
2018-07-20T06:18:53.047Z,5.70
2018-07-20T06:21:24.267Z,5.63
2018-07-20T06:23:55.438Z,5.40
2018-07-20T06:26:26.133Z,5.80
2018-07-20T06:28:57.363Z,5.10
2018-07-20T06:31:29.001Z,5.00
2018-07-20T06:33:59.748Z,5.03
2018-07-20T06:36:30.521Z,4.97
2018-07-20T06:39:01.425Z,4.97
2018-07-20T06:41:32.191Z,6.23
2018-07-20T06:44:02.833Z,4.77
2018-07-20T06:46:33.758Z,5.13
2018-07-20T06:49:05.838Z,5.67
2018-07-20T06:51:37.448Z,4.80
2018-07-20T06:54:08.136Z,5.27
2018-07-20T06:56:38.806Z,5.10
2018-07-20T06:59:09.435Z,4.40
2018-07-20T07:01:40.057Z,4.40
2018-07-20T07:04:10.827Z,4.53
2018-07-20T07:06:42.429Z,4.13
2018-07-20T07:09:14.121Z,4.20
2018-07-20T07:11:44.914Z,4.10
2018-07-20T07:14:16.357Z,4.60
2018-07-20T07:16:47.270Z,3.83
2018-07-20T07:19:17.982Z,4.23
2018-07-20T07:21:49.636Z,4.13
2018-07-20T07:24:20.691Z,3.83
2018-07-20T07:26:52.287Z,3.80
2018-07-20T07:29:22.977Z,4.50
2018-07-20T07:31:53.704Z,4.17
2018-07-20T07:34:24.574Z,4.40
2018-07-20T07:36:55.406Z,4.53
2018-07-20T07:39:26.249Z,3.97
2018-07-20T07:41:57.812Z,4.47
2018-07-20T07:44:29.639Z,4.03
2018-07-20T07:47:00.552Z,4.33
2018-07-20T07:49:31.768Z,4.30
2018-07-20T07:52:02.363Z,4.20
2018-07-20T07:54:33.103Z,4.60
2018-07-20T07:57:04.149Z,4.50
2018-07-20T07:59:35.174Z,4.20
2018-07-20T08:02:06.765Z,4.30
2018-07-20T08:04:38.839Z,7.73
2018-07-20T08:07:09.773Z,4.13
2018-07-20T08:09:40.795Z,4.00
2018-07-20T08:12:11.449Z,4.50
2018-07-20T08:14:42.593Z,4.43
2018-07-20T08:17:13.926Z,3.83
2018-07-20T08:19:46.314Z,3.93
2018-07-20T08:22:19.418Z,3.87
2018-07-20T08:24:53.173Z,3.57
2018-07-20T08:27:24.265Z,3.70
2018-07-20T08:29:55.596Z,3.60
2018-07-20T08:32:28.364Z,3.83
2018-07-20T08:35:00.125Z,3.77
2018-07-20T08:37:33.095Z,3.40
2018-07-20T08:40:05.485Z,3.30
2018-07-20T08:42:36.576Z,3.40
2018-07-20T08:45:09.786Z,3.50
2018-07-20T08:47:40.926Z,3.50
2018-07-20T08:50:12.556Z,3.20
2018-07-20T08:52:44.086Z,3.40
2018-07-20T08:55:15.310Z,3.60
2018-07-20T08:57:45.735Z,3.22
2018-07-20T09:00:16.853Z,3.70
2018-07-20T09:02:48.058Z,3.35
2018-07-20T09:05:19.386Z,3.25
2018-07-20T09:07:51.783Z,2.90
2018-07-20T09:10:28.046Z,3.15
2018-07-20T09:13:00.144Z,3.02
2018-07-20T09:15:31.203Z,3.20
2018-07-20T09:18:03.715Z,2.70
2018-07-20T09:20:36.157Z,2.95
2018-07-20T09:23:09.467Z,2.80
2018-07-20T09:25:40.888Z,3.67
2018-07-20T09:28:13.262Z,2.98
2018-07-20T09:30:44.095Z,3.20
2018-07-20T09:33:15.803Z,3.35
2018-07-20T09:35:47.047Z,3.02
2018-07-20T09:38:18.311Z,3.20
2018-07-20T09:40:50.719Z,3.00
2018-07-20T09:43:21.649Z,3.30
2018-07-20T09:45:53.143Z,3.33
2018-07-20T09:48:24.459Z,3.35
2018-07-20T09:50:56.081Z,2.98
2018-07-20T09:53:29.641Z,4.45
2018-07-20T09:56:00.631Z,3.35
2018-07-20T09:58:33.642Z,3.40
2018-07-20T10:01:04.914Z,3.35
2018-07-20T10:03:36.109Z,3.22
2018-07-20T10:06:07.616Z,3.40
2018-07-20T10:08:39.709Z,3.45
2018-07-20T10:11:11.023Z,3.60
2018-07-20T10:13:44.500Z,3.77
2018-07-20T10:16:17.332Z,3.50
2018-07-20T10:18:48.777Z,3.40
2018-07-20T10:21:20.016Z,3.58
2018-07-20T10:23:52.268Z,3.70
2018-07-20T10:26:23.643Z,3.58
2018-07-20T10:28:55.574Z,3.52
2018-07-20T10:31:27.488Z,3.60
2018-07-20T10:33:59.796Z,4.05
2018-07-20T10:36:31.071Z,3.83
2018-07-20T10:39:01.775Z,3.92
2018-07-20T10:41:32.495Z,3.60
2018-07-20T10:44:03.110Z,3.55
2018-07-20T10:46:34.545Z,3.58
2018-07-20T10:49:06.238Z,3.65
2018-07-20T10:51:36.914Z,3.25
2018-07-20T10:54:07.778Z,3.52
2018-07-20T10:56:38.546Z,3.72
2018-07-20T10:59:09.789Z,3.33
2018-07-20T11:01:41.200Z,3.47
2018-07-20T11:04:12.429Z,3.40
2018-07-20T11:06:44.855Z,3.37
2018-07-20T11:09:15.730Z,3.47
2018-07-20T11:11:47.001Z,3.50
2018-07-20T11:14:19.571Z,3.77
2018-07-20T11:16:51.433Z,3.52
2018-07-20T11:19:22.717Z,3.55
2018-07-20T11:21:56.421Z,3.27
2018-07-20T11:24:30.063Z,3.60
2018-07-20T11:27:01.364Z,3.58
2018-07-20T11:29:32.641Z,3.50
2018-07-20T11:32:04.636Z,3.58
2018-07-20T11:34:36.929Z,3.37
2018-07-20T11:37:11.091Z,3.40
2018-07-20T11:39:43.185Z,3.80
2018-07-20T11:42:15.070Z,3.55
2018-07-20T11:44:47.455Z,3.60
2018-07-20T11:47:18.454Z,3.45
2018-07-20T11:49:50.239Z,3.80
2018-07-20T11:52:25.364Z,3.50
2018-07-20T11:54:57.597Z,3.58
2018-07-20T11:57:28.590Z,3.50
2018-07-20T12:00:00.616Z,3.60
2018-07-20T12:02:31.238Z,3.70
2018-07-20T12:05:01.978Z,3.30
2018-07-20T12:07:33.065Z,3.30
2018-07-20T12:10:05.232Z,3.47
2018-07-20T12:12:36.292Z,3.55
2018-07-20T12:15:07.712Z,3.67
2018-07-20T12:17:39.141Z,3.50
2018-07-20T12:20:11.341Z,3.65
2018-07-20T12:22:42.504Z,3.55
2018-07-20T12:25:14.480Z,3.30
2018-07-20T12:27:47.748Z,3.70
2018-07-20T12:30:20.503Z,3.50
2018-07-20T12:32:51.474Z,3.42
2018-07-20T12:35:28.387Z,4.05
2018-07-20T12:37:59.496Z,3.40
2018-07-20T12:40:32.141Z,3.30
2018-07-20T12:43:02.932Z,3.60
2018-07-20T12:45:33.855Z,3.27
2018-07-20T12:48:05.554Z,3.58
2018-07-20T12:50:38.038Z,3.58
2018-07-20T12:53:13.824Z,3.25
2018-07-20T12:55:46.276Z,3.58
2018-07-20T12:58:17.664Z,3.60
2018-07-20T13:00:48.589Z,3.70
2018-07-20T13:03:19.704Z,3.27
2018-07-20T13:05:50.705Z,3.70
2018-07-20T13:08:22.522Z,3.40
2018-07-20T13:10:53.805Z,3.60
2018-07-20T13:13:26.040Z,3.35
2018-07-20T13:15:57.746Z,3.22
2018-07-20T13:18:28.586Z,3.20
2018-07-20T13:20:59.637Z,3.27
2018-07-20T13:23:30.770Z,3.43
2018-07-20T13:26:01.610Z,3.23
2018-07-20T13:28:32.957Z,3.20
2018-07-20T13:31:04.159Z,3.30
2018-07-20T13:33:37.857Z,3.27
2018-07-20T13:36:08.861Z,3.33
2018-07-20T13:38:39.661Z,3.20
2018-07-20T13:41:11.623Z,2.87
2018-07-20T13:43:43.379Z,3.70
2018-07-20T13:46:14.467Z,3.07
2018-07-20T13:48:45.867Z,3.27
2018-07-20T13:51:18.541Z,3.20
2018-07-20T13:53:49.473Z,3.20
2018-07-20T13:56:21.431Z,3.63
2018-07-20T13:58:53.370Z,3.30
2018-07-20T14:01:26.772Z,3.33
2018-07-20T14:03:58.414Z,3.40
2018-07-20T14:06:31.284Z,3.03
2018-07-20T14:09:06.615Z,3.10
2018-07-20T14:11:37.763Z,3.30
2018-07-20T14:14:09.009Z,3.33
2018-07-20T14:16:40.747Z,3.23
2018-07-20T14:19:11.803Z,3.13
2018-07-20T14:21:42.766Z,3.40
2018-07-20T14:24:15.032Z,3.10
2018-07-20T14:26:45.817Z,3.50
2018-07-20T14:29:17.261Z,2.87
2018-07-20T14:31:52.291Z,3.20
2018-07-20T14:34:23.537Z,3.27
2018-07-20T14:36:54.439Z,3.10
2018-07-20T14:39:26.289Z,3.50
2018-07-20T14:41:58.026Z,3.10
2018-07-20T14:44:29.471Z,3.40
2018-07-20T14:47:01.176Z,3.60
2018-07-20T14:49:31.880Z,4.03
2018-07-20T14:52:02.806Z,3.57
2018-07-20T14:54:33.868Z,3.17
2018-07-20T14:57:05.839Z,3.47
2018-07-20T14:59:37.701Z,3.60
2018-07-20T15:02:08.491Z,3.57
2018-07-20T15:04:39.843Z,3.40
2018-07-20T15:07:11.114Z,3.77
2018-07-20T15:09:42.057Z,3.50
2018-07-20T15:12:12.995Z,3.60
2018-07-20T15:14:44.545Z,3.40
2018-07-20T15:17:17.816Z,3.67
2018-07-20T15:19:48.647Z,4.37
2018-07-20T15:22:20.292Z,4.07
2018-07-20T15:24:51.085Z,3.70
2018-07-20T15:27:21.780Z,8.73
2018-07-20T15:29:52.522Z,3.93
2018-07-20T15:32:23.947Z,4.07
2018-07-20T15:34:55.634Z,4.17
2018-07-20T15:37:27.584Z,4.03
2018-07-20T15:39:58.724Z,3.90
2018-07-20T15:42:29.719Z,3.97
2018-07-20T15:45:01.011Z,4.10
2018-07-20T15:47:32.567Z,4.23
2018-07-20T15:50:04.545Z,4.20
2018-07-20T15:55:09.659Z,4.60
2018-07-20T15:57:42.753Z,4.70
2018-07-20T16:00:14.678Z,4.17
2018-07-20T16:02:47.691Z,4.60
2018-07-20T16:05:24.457Z,4.20
2018-07-20T16:07:59.445Z,4.30
2018-07-20T16:10:33.249Z,13.47
2018-07-20T16:13:05.866Z,4.33
2018-07-20T16:15:40.884Z,67.63
2018-07-20T16:18:14.155Z,113.57
2018-07-20T16:20:46.605Z,128.20
2018-07-20T16:23:18.707Z,24.33
2018-07-20T16:25:50.319Z,13.53
2018-07-20T16:28:22.875Z,32.13
2018-07-20T16:30:56.883Z,5.10
2018-07-20T16:33:28.385Z,26.80
2018-07-20T16:36:00.647Z,50.83
2018-07-20T16:38:32.324Z,95.40
2018-07-20T16:41:03.913Z,17.63
2018-07-20T16:43:35.583Z,60.63
2018-07-20T16:46:07.768Z,43.67
2018-07-20T16:48:40.385Z,37.37
2018-07-20T16:51:13.602Z,19.33
2018-07-20T16:53:45.035Z,106.20
2018-07-20T16:56:15.785Z,37.90
2018-07-20T16:58:48.322Z,9.30
2018-07-20T17:01:20.180Z,19.37
2018-07-20T17:03:51.965Z,24.83
2018-07-20T17:06:23.911Z,25.90
2018-07-20T17:08:55.910Z,11.30
2018-07-20T17:11:26.687Z,5.50
2018-07-20T17:13:57.715Z,81.70
2018-07-20T17:16:29.508Z,42.30
2018-07-20T17:19:01.063Z,119.93
2018-07-20T17:21:33.741Z,37.97
2018-07-20T17:24:05.065Z,12.97
2018-07-20T17:26:37.086Z,68.03
2018-07-20T17:29:09.101Z,58.03
2018-07-20T17:31:40.213Z,28.87
2018-07-20T17:34:10.775Z,67.27
2018-07-20T17:36:41.803Z,50.23
2018-07-20T17:39:14.381Z,42.40
2018-07-20T17:41:46.959Z,8.93
2018-07-20T17:44:17.906Z,34.50
2018-07-20T17:46:48.999Z,17.00
2018-07-20T17:49:21.428Z,55.30
2018-07-20T17:51:53.451Z,47.93
2018-07-20T17:54:27.040Z,18.67
2018-07-20T17:56:58.165Z,17.63
2018-07-20T17:59:29.449Z,8.93
2018-07-20T18:02:01.299Z,5.20
2018-07-20T18:04:33.811Z,4.47
2018-07-20T18:07:07.388Z,7.43
2018-07-20T18:09:40.290Z,4.27
2018-07-20T18:12:19.106Z,3.87
2018-07-20T18:14:53.079Z,3.50
2018-07-20T18:17:24.135Z,3.50
2018-07-20T18:19:55.942Z,3.77
2018-07-20T18:22:28.326Z,3.50
2018-07-20T18:24:59.089Z,3.50
2018-07-20T18:27:31.267Z,3.50
2018-07-20T18:30:01.876Z,3.80
2018-07-20T18:32:33.420Z,3.67
2018-07-20T18:35:05.022Z,3.83
2018-07-20T18:37:36.649Z,3.90
2018-07-20T18:40:09.959Z,3.60
2018-07-20T18:42:41.862Z,3.80
2018-07-20T18:45:12.646Z,4.10
2018-07-20T18:47:44.697Z,3.83
2018-07-20T18:50:17.352Z,3.67
2018-07-20T18:52:48.203Z,3.97
2018-07-20T18:55:20.217Z,3.33
2018-07-20T18:57:52.556Z,3.60
2018-07-20T19:00:23.317Z,3.67
2018-07-20T19:02:54.934Z,3.40
2018-07-20T19:05:26.463Z,4.20
2018-07-20T19:07:56.794Z,4.07
2018-07-20T19:10:27.754Z,3.47
2018-07-20T19:12:59.763Z,3.50
2018-07-20T19:15:31.537Z,3.90
2018-07-20T19:18:02.555Z,3.83
2018-07-20T19:20:34.524Z,3.40
2018-07-20T19:23:05.715Z,3.40
2018-07-20T19:25:38.145Z,3.57
2018-07-20T19:28:11.465Z,3.83
2018-07-20T19:30:43.381Z,3.70
2018-07-20T19:33:15.446Z,3.53
2018-07-20T19:35:47.312Z,3.93
2018-07-20T19:38:18.661Z,4.30
2018-07-20T19:40:49.534Z,4.13
2018-07-20T19:43:21.529Z,4.23
2018-07-20T19:45:54.167Z,4.03
2018-07-20T19:48:25.512Z,3.80
2018-07-20T19:50:58.840Z,4.03
2018-07-20T19:53:30.047Z,3.60
2018-07-20T19:56:01.934Z,4.20
2018-07-20T19:58:33.445Z,3.87
2018-07-20T20:01:06.109Z,3.97
2018-07-20T20:03:39.009Z,4.00
2018-07-20T20:06:10.605Z,3.70
2018-07-20T20:08:42.096Z,4.20
2018-07-20T20:11:15.864Z,4.10
2018-07-20T20:13:47.085Z,3.70
2018-07-20T20:16:20.155Z,4.07
2018-07-20T20:18:52.814Z,5.30
2018-07-20T20:21:27.238Z,4.07
2018-07-20T20:23:58.874Z,4.13
2018-07-20T20:26:30.360Z,4.00
2018-07-20T20:29:01.968Z,4.37
2018-07-20T20:31:36.397Z,4.00
2018-07-20T20:34:09.141Z,4.10
2018-07-20T20:36:40.376Z,6.13
2018-07-20T20:39:13.501Z,4.47
2018-07-20T20:41:45.152Z,4.67
2018-07-20T20:44:16.148Z,4.87
2018-07-20T20:46:48.563Z,4.40
2018-07-20T20:49:20.879Z,3.97
2018-07-20T20:51:52.155Z,4.60
2018-07-20T20:54:23.396Z,3.97
2018-07-20T20:56:54.566Z,4.60
2018-07-20T20:59:25.581Z,4.00
2018-07-20T21:01:56.909Z,4.23
2018-07-20T21:04:28.573Z,4.10
2018-07-20T21:06:59.437Z,4.50
2018-07-20T21:09:30.181Z,4.73
2018-07-20T21:12:01.079Z,4.73
2018-07-20T21:14:31.737Z,4.40
2018-07-20T21:17:03.396Z,4.40
2018-07-20T21:19:34.452Z,4.70
2018-07-20T21:22:06.569Z,4.40
2018-07-20T21:24:37.787Z,4.67
2018-07-20T21:27:08.552Z,4.20
2018-07-20T21:29:40.656Z,4.50
2018-07-20T21:32:17.805Z,4.47
2018-07-20T21:34:51.655Z,4.20
2018-07-20T21:37:24.001Z,4.07
2018-07-20T21:39:55.315Z,4.13
2018-07-20T21:42:26.917Z,4.50
2018-07-20T21:44:57.901Z,4.57
2018-07-20T21:47:29.377Z,4.30
2018-07-20T21:50:00.532Z,4.63
2018-07-20T21:52:31.745Z,3.73
2018-07-20T21:55:03.535Z,4.40
2018-07-20T21:57:34.748Z,4.40
2018-07-20T22:00:12.882Z,4.10
2018-07-20T22:02:44.487Z,3.87
2018-07-20T22:05:16.194Z,4.17
2018-07-20T22:07:59.222Z,4.50
2018-07-20T22:10:32.161Z,4.60
2018-07-20T22:13:09.497Z,4.10
2018-07-20T22:15:40.889Z,4.67
2018-07-20T22:18:11.626Z,4.87
2018-07-20T22:20:42.631Z,4.73
2018-07-20T22:23:13.981Z,4.90
2018-07-20T22:25:44.452Z,4.43
2018-07-20T22:28:16.854Z,4.67
2018-07-20T22:30:47.762Z,4.53
2018-07-20T22:33:19.946Z,4.60
2018-07-20T22:35:51.829Z,4.33
2018-07-20T22:38:23.604Z,4.47
2018-07-20T22:40:54.723Z,4.73
2018-07-20T22:43:27.769Z,4.57
2018-07-20T22:45:59.420Z,4.60
2018-07-20T22:48:31.510Z,4.70
2018-07-20T22:51:05.123Z,4.77
2018-07-20T22:53:37.991Z,4.00
2018-07-20T22:56:09.543Z,4.70
2018-07-20T22:58:46.243Z,4.43
2018-07-20T23:01:20.768Z,4.87
2018-07-20T23:03:55.968Z,4.20
2018-07-20T23:06:27.696Z,5.10
2018-07-20T23:08:59.043Z,4.53
2018-07-20T23:11:33.120Z,4.57
2018-07-20T23:14:06.146Z,4.90
2018-07-20T23:16:38.608Z,4.80
2018-07-20T23:19:11.209Z,5.00
2018-07-20T23:21:42.332Z,3.90
2018-07-20T23:24:13.859Z,4.80
2018-07-20T23:26:46.492Z,4.80
2018-07-20T23:29:17.905Z,4.70
2018-07-20T23:31:48.799Z,5.80
2018-07-20T23:34:19.592Z,5.57
2018-07-20T23:36:50.200Z,5.07
2018-07-20T23:39:20.877Z,5.07
2018-07-20T23:41:53.120Z,5.37
2018-07-20T23:44:24.579Z,6.00
2018-07-20T23:46:55.608Z,5.47
2018-07-20T23:49:26.274Z,4.80
2018-07-20T23:51:57.080Z,5.43
2018-07-20T23:54:28.309Z,4.70
2018-07-20T23:56:58.955Z,4.70
2018-07-20T23:59:29.829Z,5.00
